Pope Air Force Base
KPOB : now visible

Airfield :











YOU CAN JOIN US ON...

 
LOGIN :

Register | Disclaimer

   EN    FR    IT 

 









Legend :    VFR   Marginal VFR   IFR   Intensive IFR   Very Intensive IFR
Visi :
Ceiling :
>= 8 km
>= 3000ft
5 to 8 km
1000 to 3000 ft
1500m to 5 km
500 to 1000 ft
800 to 1500m
200 to 500 ft
< 800m
< 200 ft
Symbols :   Thunderstorms  Fog  Heavy snow  Heavy precipitations  Wind > 20 kt






- Airport Elevation : 217 ft


KPOB - Pope Air Force Base

CURRENT METAR :
  • 291716Z AUTO 00000KT 10SM FEW075 FEW100 SCT130 BKN180 BKN200 26/22 A3003 RMK AO2 SLP170 $

EXPIRED METARs :
  • 291656Z AUTO 17004KT 10SM FEW080 FEW090 BKN110 25/22 A3005 RMK AO2 RAB1556E24DZB24E26 SLP177 P0001 T02450220 $
  • 291627Z AUTO 14003KT 10SM SCT070 BKN110 OVC130 24/21 A3005 RMK AO2 RAB1556E24DZB24E26 SLP177 $
  • 291557Z AUTO 15003KT 10SM -RA BKN075 BKN100 BKN130 23/20 A3007 RMK AO2 LTG DSNT E RAB56 SLP184 $
  • 291556Z AUTO 00000KT 10SM SCT070 BKN090 BKN110 BKN130 23/20 A3007 RMK AO2 LTG DSNT E RAE22DZB22E26 SLP184 P0004 T02320201 $
  • 291541Z AUTO 00000KT 10SM FEW050 BKN065 BKN085 BKN140 23/20 A3006 RMK AO2 RAE22DZB22E26 PRESFR SLP181 $
  • 291526Z AUTO 00000KT 10SM FEW004 FEW041 SCT049 OVC065 22/21 A3008 RMK AO2 LTG DSNT S RAE22DZB22E26 SLP187 $
  • 291511Z AUTO 00000KT 6SM -RA BR SCT003 SCT008 BKN048 BKN065 OVC075 22/21 A3008 RMK AO2 SLP187 $
  • 291501Z AUTO 00000KT 9SM -RA SCT003 BKN009 BKN021 BKN041 BKN049 22/21 A3009 RMK AO2 CIG 003V039 SLP191 $
  • 291456Z AUTO 28003KT 6SM -RA BR BKN003 BKN038 BKN049 OVC070 22/21 A3010 RMK AO2 RAE00DZB02E05RAB05 TSB15E30 SLP194 P0029 60055 T02170207 50003 $

TAF AMD TAF KPOB
Valid from the 29 at 17:00 until the 30 at 23:00 UTC


291721Z 2917/3023 19006KT 8000 -SHRA VCTS SCT008 BKN020CB OVC040 QNH3003INS
TEMPO 2919/3002 VRB40G50KT 1600 +TSRAGR BKN009CB
BECMG 3001/3002 21006KT 8000 -SHRA BKN010 OVC020 QNH2999INS
BECMG 3005/3006 20006KT 8000 BR SCT005 BKN008 QNH2997INS
BECMG 3015/3016 24012KT 8000 -SHRA SCT016 BKN020 QNH2996INS
TEMPO 3018/3023 VRB15G25KT 8000 -TSRA BKN016CB BKN024 OVC040 TX27/2921Z TN22/3011Z
KZDC FIR / North America



MET'MAP, your aeronautical weather chart ! - Copyright ORBIFLY December 2007 - Disclaimer

ORBIFLY MET'MAP TEAM :

Programming & Development : Alexandra Zaïnal
Concept & original design : Baudouin d'Aumeries
Assistance for programming : Marc-Olivier Méhu
Technical & hardware support : Manuel Goepfert

Contact : metmap@orbifly.com




SOURCES & CREDITS :

   NOAA       Earth
Advisory